createdAt,value
2018-06-10T00:01:26.090Z,15.79
2018-06-10T00:03:55.431Z,15.75
2018-06-10T00:06:24.783Z,15.77
2018-06-10T00:08:54.136Z,15.74
2018-06-10T00:11:23.492Z,15.75
2018-06-10T00:13:52.901Z,15.66
2018-06-10T00:16:22.280Z,15.58
2018-06-10T00:18:51.658Z,15.51
2018-06-10T00:21:21.047Z,15.45
2018-06-10T00:23:50.416Z,14.98
2018-06-10T00:26:19.827Z,15.37
2018-06-10T00:28:54.577Z,15.30
2018-06-10T00:31:23.978Z,15.24
2018-06-10T00:33:53.359Z,15.33
2018-06-10T00:36:22.754Z,15.31
2018-06-10T00:38:52.123Z,15.16
2018-06-10T00:41:21.514Z,15.20
2018-06-10T00:43:50.624Z,15.33
2018-06-10T00:46:20.027Z,15.31
2018-06-10T00:48:49.404Z,15.32
2018-06-10T00:51:18.516Z,15.41
2018-06-10T00:53:47.924Z,15.33
2018-06-10T00:56:34.316Z,15.31
2018-06-10T00:59:03.705Z,15.26
2018-06-10T01:01:32.844Z,15.30
2018-06-10T01:04:02.233Z,15.30
2018-06-10T01:06:31.636Z,35.99
2018-06-10T01:09:01.033Z,15.32
2018-06-10T01:11:30.408Z,15.25
2018-06-10T01:13:59.519Z,15.27
2018-06-10T01:16:28.902Z,15.24
2018-06-10T01:18:58.285Z,15.12
2018-06-10T01:21:27.663Z,15.02
2018-06-10T01:23:57.089Z,15.01
2018-06-10T01:26:31.823Z,14.73
2018-06-10T01:29:01.225Z,14.90
2018-06-10T01:31:30.602Z,14.79
2018-06-10T01:33:59.992Z,14.93
2018-06-10T01:36:29.395Z,14.95
2018-06-10T01:38:58.793Z,14.88
2018-06-10T01:41:28.164Z,14.92
2018-06-10T01:43:57.567Z,14.80
2018-06-10T01:46:26.944Z,14.69
2018-06-10T01:48:56.091Z,14.63
2018-06-10T01:51:25.515Z,14.62
2018-06-10T01:53:54.913Z,14.67
2018-06-10T01:56:24.297Z,14.51
2018-06-10T01:58:53.698Z,14.54
2018-06-10T02:01:23.093Z,14.56
2018-06-10T02:03:52.495Z,14.65
2018-06-10T02:06:21.879Z,14.61
2018-06-10T02:08:51.292Z,14.65
2018-06-10T02:11:20.660Z,14.64
2018-06-10T02:13:49.794Z,14.63
2018-06-10T02:16:19.184Z,14.52
2018-06-10T02:18:48.580Z,14.48
2018-06-10T02:21:17.963Z,14.48
2018-06-10T02:23:47.075Z,14.43
2018-06-10T02:26:16.463Z,14.26
2018-06-10T02:28:45.604Z,14.32
2018-06-10T02:31:14.978Z,14.31
2018-06-10T02:33:44.359Z,14.25
2018-06-10T02:36:13.492Z,14.29
2018-06-10T02:38:42.874Z,14.27
2018-06-10T02:41:12.271Z,14.34
2018-06-10T02:43:41.668Z,14.31
2018-06-10T02:46:10.795Z,14.31
2018-06-10T02:48:40.188Z,14.43
2018-06-10T02:51:09.598Z,14.42
2018-06-10T02:53:38.915Z,14.50
2018-06-10T02:56:09.315Z,14.42
2018-06-10T02:58:38.657Z,14.43
2018-06-10T03:01:07.969Z,14.47
2018-06-10T03:03:37.276Z,14.41
2018-06-10T03:06:06.599Z,14.27
2018-06-10T03:08:35.935Z,14.27
2018-06-10T03:11:05.262Z,14.11
2018-06-10T03:13:34.581Z,14.07
2018-06-10T03:16:03.901Z,13.64
2018-06-10T03:18:33.224Z,13.98
2018-06-10T03:21:02.548Z,13.94
2018-06-10T03:23:31.872Z,14.08
2018-06-10T03:26:01.189Z,13.41
2018-06-10T03:28:30.496Z,14.03
2018-06-10T03:30:59.576Z,14.04
2018-06-10T03:33:28.880Z,14.00
2018-06-10T03:35:57.943Z,14.03
2018-06-10T03:38:27.265Z,13.93
2018-06-10T03:40:56.587Z,13.90
2018-06-10T03:43:25.678Z,14.01
2018-06-10T03:45:54.743Z,13.94
2018-06-10T03:48:24.044Z,14.03
2018-06-10T03:50:53.376Z,13.87
2018-06-10T03:53:22.468Z,13.93
2018-06-10T03:55:51.526Z,14.40
2018-06-10T03:58:20.839Z,13.88
2018-06-10T04:00:50.168Z,13.96
2018-06-10T04:03:19.489Z,14.05
2018-06-10T04:05:48.829Z,14.08
2018-06-10T04:08:18.136Z,14.00
2018-06-10T04:10:47.450Z,14.09
2018-06-10T04:13:16.791Z,14.66
2018-06-10T04:15:46.092Z,14.01
2018-06-10T04:18:15.420Z,14.05
2018-06-10T04:20:44.744Z,14.09
2018-06-10T04:23:14.085Z,14.08
2018-06-10T04:25:43.379Z,14.10
2018-06-10T04:28:12.700Z,14.09
2018-06-10T04:30:42.035Z,14.22
2018-06-10T04:33:11.369Z,14.21
2018-06-10T04:35:40.695Z,14.18
2018-06-10T04:38:10.024Z,14.25
2018-06-10T04:40:39.343Z,14.30
2018-06-10T04:43:08.657Z,14.13
2018-06-10T04:45:37.960Z,14.98
2018-06-10T04:48:07.047Z,13.75
2018-06-10T04:50:36.363Z,14.43
2018-06-10T04:53:05.484Z,14.64
2018-06-10T04:55:34.775Z,14.77
2018-06-10T04:58:04.094Z,14.91
2018-06-10T05:00:33.385Z,15.01
2018-06-10T05:03:02.707Z,15.15
2018-06-10T05:05:32.013Z,15.21
2018-06-10T05:08:01.336Z,15.24
2018-06-10T05:10:30.660Z,15.38
2018-06-10T05:12:59.739Z,15.43
2018-06-10T05:15:28.833Z,15.47
2018-06-10T05:17:58.153Z,15.42
2018-06-10T05:20:27.467Z,15.45
2018-06-10T05:22:56.829Z,15.55
2018-06-10T05:25:26.152Z,15.50
2018-06-10T05:27:55.487Z,15.70
2018-06-10T05:30:24.802Z,15.79
2018-06-10T05:32:54.124Z,15.85
2018-06-10T05:35:23.428Z,15.89
2018-06-10T05:37:52.769Z,15.54
2018-06-10T05:40:22.080Z,15.99
2018-06-10T05:42:51.420Z,16.03
2018-06-10T05:45:20.748Z,16.14
2018-06-10T05:47:49.832Z,15.36
2018-06-10T05:50:18.900Z,16.18
2018-06-10T05:52:48.237Z,16.19
2018-06-10T05:55:17.302Z,16.25
2018-06-10T05:57:46.623Z,16.22
2018-06-10T06:00:15.717Z,16.34
2018-06-10T06:02:44.778Z,16.33
2018-06-10T06:05:14.112Z,16.36
2018-06-10T06:07:43.178Z,16.39
2018-06-10T06:10:12.493Z,16.43
2018-06-10T06:12:41.831Z,16.30
2018-06-10T06:15:15.400Z,16.59
2018-06-10T06:17:44.817Z,16.63
2018-06-10T06:20:13.889Z,16.74
2018-06-10T06:22:43.185Z,16.75
2018-06-10T06:25:12.495Z,16.83
2018-06-10T06:27:41.825Z,16.87
2018-06-10T06:30:11.124Z,17.04
2018-06-10T06:32:40.441Z,17.05
2018-06-10T06:35:09.812Z,17.07
2018-06-10T06:37:38.892Z,17.11
2018-06-10T06:40:08.865Z,17.11
2018-06-10T06:42:38.160Z,17.16
2018-06-10T06:45:07.500Z,17.25
2018-06-10T06:47:36.797Z,17.41
2018-06-10T06:50:06.104Z,17.43
2018-06-10T06:52:35.452Z,17.47
2018-06-10T06:55:04.704Z,17.60
2018-06-10T06:57:34.042Z,17.62
2018-06-10T07:00:03.401Z,17.75
2018-06-10T07:02:32.690Z,17.77
2018-06-10T07:05:02.017Z,17.80
2018-06-10T07:07:31.079Z,17.72
2018-06-10T07:10:00.411Z,17.90
2018-06-10T07:12:29.711Z,18.51
2018-06-10T07:14:59.037Z,17.99
2018-06-10T07:17:28.328Z,18.01
2018-06-10T07:19:57.679Z,17.98
2018-06-10T07:22:26.934Z,18.06
2018-06-10T07:24:56.260Z,18.13
2018-06-10T07:27:25.572Z,18.18
2018-06-10T07:29:54.882Z,18.22
2018-06-10T07:32:24.214Z,18.23
2018-06-10T07:34:53.508Z,18.29
2018-06-10T07:37:22.562Z,17.66
2018-06-10T07:39:51.860Z,18.36
2018-06-10T07:42:21.169Z,18.53
2018-06-10T07:44:50.467Z,18.56
2018-06-10T07:47:19.796Z,18.66
2018-06-10T07:49:49.101Z,18.73
2018-06-10T07:52:18.414Z,18.77
2018-06-10T07:54:47.479Z,18.87
2018-06-10T07:57:16.794Z,18.94
2018-06-10T07:59:46.091Z,18.30
2018-06-10T08:02:15.395Z,19.01
2018-06-10T08:04:44.686Z,19.17
2018-06-10T08:07:13.988Z,18.85
2018-06-10T08:09:43.292Z,19.07
2018-06-10T08:12:12.612Z,19.29
2018-06-10T08:14:41.688Z,19.28
2018-06-10T08:17:10.985Z,19.99
2018-06-10T08:19:40.548Z,19.22
2018-06-10T08:22:09.872Z,19.41
2018-06-10T08:24:39.177Z,19.53
2018-06-10T08:27:08.495Z,19.63
2018-06-10T08:29:37.813Z,19.80
2018-06-10T08:32:07.210Z,19.87
2018-06-10T08:34:36.284Z,19.94
2018-06-10T08:37:05.826Z,20.12
2018-06-10T08:39:35.146Z,20.30
2018-06-10T08:42:04.457Z,20.45
2018-06-10T08:44:33.768Z,20.59
2018-06-10T08:47:03.160Z,20.68
2018-06-10T08:49:32.472Z,20.68
2018-06-10T08:52:01.784Z,20.74
2018-06-10T08:54:31.168Z,20.78
2018-06-10T08:57:00.549Z,20.69
2018-06-10T08:59:29.857Z,20.79
2018-06-10T09:01:59.191Z,20.74
2018-06-10T09:04:28.526Z,20.97
2018-06-10T09:06:57.845Z,20.99
2018-06-10T09:09:27.165Z,20.94
2018-06-10T09:11:56.476Z,20.90
2018-06-10T09:14:25.813Z,20.99
2018-06-10T09:16:54.878Z,20.95
2018-06-10T09:19:24.199Z,20.93
2018-06-10T09:21:53.279Z,21.02
2018-06-10T09:24:22.604Z,20.97
2018-06-10T09:26:51.666Z,21.07
2018-06-10T09:29:20.992Z,21.11
2018-06-10T09:31:50.285Z,21.24
2018-06-10T09:34:19.592Z,20.81
2018-06-10T09:36:48.651Z,21.62
2018-06-10T09:39:17.960Z,21.53
2018-06-10T09:41:47.269Z,21.55
2018-06-10T09:44:16.576Z,21.44
2018-06-10T09:46:45.899Z,21.53
2018-06-10T09:49:15.208Z,21.76
2018-06-10T09:51:44.512Z,21.86
2018-06-10T09:54:13.848Z,21.84
2018-06-10T09:56:43.156Z,21.92
2018-06-10T09:59:12.495Z,21.82
2018-06-10T10:01:41.841Z,21.87
2018-06-10T10:04:11.163Z,21.88
2018-06-10T10:06:40.500Z,21.79
2018-06-10T10:09:09.583Z,21.80
2018-06-10T10:11:38.690Z,21.72
2018-06-10T10:14:09.111Z,21.96
2018-06-10T10:16:38.184Z,22.10
2018-06-10T10:19:07.561Z,22.18
2018-06-10T10:21:36.867Z,22.22
2018-06-10T10:24:06.241Z,22.10
2018-06-10T10:26:35.486Z,22.13
2018-06-10T10:29:04.786Z,22.14
2018-06-10T10:31:34.108Z,22.27
2018-06-10T10:34:03.190Z,22.34
2018-06-10T10:36:32.267Z,22.47
2018-06-10T10:39:01.589Z,22.64
2018-06-10T10:41:30.690Z,22.64
2018-06-10T10:43:59.759Z,22.08
2018-06-10T10:46:29.093Z,22.79
2018-06-10T10:48:58.250Z,22.89
2018-06-10T10:51:27.568Z,22.81
2018-06-10T10:53:56.875Z,22.74
2018-06-10T10:56:25.975Z,22.88
2018-06-10T10:58:55.052Z,22.91
2018-06-10T11:01:24.433Z,23.01
2018-06-10T11:03:53.753Z,22.84
2018-06-10T11:06:23.072Z,22.94
2018-06-10T11:08:52.165Z,23.09
2018-06-10T11:11:21.247Z,23.37
2018-06-10T11:13:50.576Z,23.16
2018-06-10T11:16:19.894Z,23.48
2018-06-10T11:18:49.216Z,23.65
2018-06-10T11:21:18.539Z,23.66
2018-06-10T11:23:47.873Z,23.65
2018-06-10T11:26:16.940Z,23.73
2018-06-10T11:28:46.240Z,23.71
2018-06-10T11:31:15.543Z,23.79
2018-06-10T11:33:44.856Z,24.09
2018-06-10T11:36:14.173Z,24.19
2018-06-10T11:38:43.524Z,24.15
2018-06-10T11:41:12.852Z,24.03
2018-06-10T11:43:42.173Z,23.79
2018-06-10T11:46:11.474Z,23.93
2018-06-10T11:48:40.787Z,24.08
2018-06-10T11:51:10.137Z,24.02
2018-06-10T11:53:39.471Z,24.08
2018-06-10T11:56:09.192Z,24.06
2018-06-10T11:58:38.527Z,24.11
2018-06-10T12:01:07.833Z,24.03
2018-06-10T12:03:37.131Z,23.99
2018-06-10T12:06:06.456Z,23.94
2018-06-10T12:08:35.780Z,23.85
2018-06-10T12:11:05.112Z,24.12
2018-06-10T12:13:34.442Z,24.17
2018-06-10T12:16:03.752Z,24.32
2018-06-10T12:18:33.084Z,24.80
2018-06-10T12:21:02.384Z,24.65
2018-06-10T12:23:31.723Z,24.70
2018-06-10T12:26:01.073Z,24.69
2018-06-10T12:28:30.163Z,24.69
2018-06-10T12:30:59.479Z,24.57
2018-06-10T12:33:28.594Z,24.58
2018-06-10T12:35:57.933Z,24.51
2018-06-10T12:38:27.262Z,24.35
2018-06-10T12:40:56.570Z,24.36
2018-06-10T12:43:25.621Z,24.40
2018-06-10T12:45:54.921Z,24.39
2018-06-10T12:48:24.229Z,24.38
2018-06-10T12:50:53.531Z,24.24
2018-06-10T12:53:22.859Z,24.23
2018-06-10T12:55:52.181Z,24.29
2018-06-10T12:58:21.513Z,24.24
2018-06-10T13:00:50.837Z,24.28
2018-06-10T13:03:20.148Z,24.40
2018-06-10T13:05:49.482Z,24.01
2018-06-10T13:08:18.792Z,24.49
2018-06-10T13:10:48.138Z,24.65
2018-06-10T13:13:17.452Z,24.90
2018-06-10T13:15:46.747Z,25.11
2018-06-10T13:18:16.076Z,25.19
2018-06-10T13:20:45.395Z,25.52
2018-06-10T13:23:14.750Z,25.41
2018-06-10T13:25:44.256Z,25.29
2018-06-10T13:28:13.580Z,25.22
2018-06-10T13:30:42.907Z,25.15
2018-06-10T13:33:12.232Z,25.07
2018-06-10T13:35:41.556Z,25.31
2018-06-10T13:38:10.871Z,25.55
2018-06-10T13:40:40.184Z,25.84
2018-06-10T13:43:09.496Z,26.39
2018-06-10T13:45:38.815Z,26.71
2018-06-10T13:48:09.024Z,26.72
2018-06-10T13:50:38.334Z,26.51
2018-06-10T13:53:07.678Z,26.62
2018-06-10T13:55:37.011Z,26.68
2018-06-10T13:58:06.356Z,27.02
2018-06-10T14:00:35.688Z,27.31
2018-06-10T14:03:05.009Z,27.02
2018-06-10T14:05:34.335Z,26.89
2018-06-10T14:08:03.649Z,27.17
2018-06-10T14:10:32.973Z,27.39
2018-06-10T14:13:02.348Z,26.30
2018-06-10T14:15:31.677Z,27.62
2018-06-10T14:18:00.988Z,28.51
2018-06-10T14:20:30.316Z,29.00
2018-06-10T14:22:59.631Z,27.84
2018-06-10T14:25:28.941Z,27.90
2018-06-10T14:27:58.267Z,28.50
2018-06-10T14:30:27.682Z,29.10
2018-06-10T14:32:56.988Z,28.69
2018-06-10T14:35:26.315Z,27.34
2018-06-10T14:37:55.636Z,28.28
2018-06-10T14:40:24.971Z,28.37
2018-06-10T14:42:54.264Z,28.46
2018-06-10T14:45:23.592Z,28.39
2018-06-10T14:47:52.909Z,28.87
2018-06-10T14:50:21.988Z,29.26
2018-06-10T14:52:51.310Z,29.14
2018-06-10T14:55:20.637Z,28.91
2018-06-10T14:57:49.956Z,28.79
2018-06-10T15:00:19.298Z,28.67
2018-06-10T15:02:48.643Z,28.74
2018-06-10T15:05:17.955Z,29.05
2018-06-10T15:07:47.282Z,29.30
2018-06-10T15:10:16.597Z,29.12
2018-06-10T15:12:45.688Z,29.28
2018-06-10T15:15:14.757Z,29.53
2018-06-10T15:17:44.180Z,29.08
2018-06-10T15:20:13.496Z,29.01
2018-06-10T15:22:42.857Z,28.71
2018-06-10T15:25:12.176Z,28.85
2018-06-10T15:27:41.525Z,28.78
2018-06-10T15:30:10.841Z,28.96
2018-06-10T15:32:40.174Z,29.04
2018-06-10T15:35:09.479Z,29.00
2018-06-10T15:37:38.796Z,28.69
2018-06-10T15:40:09.099Z,28.86
2018-06-10T15:42:39.238Z,28.90
2018-06-10T15:45:08.306Z,28.32
2018-06-10T15:47:37.636Z,27.97
2018-06-10T15:50:06.753Z,27.71
2018-06-10T15:52:36.128Z,27.54
2018-06-10T15:55:05.204Z,27.33
2018-06-10T15:57:34.545Z,27.33
2018-06-10T16:00:03.889Z,27.36
2018-06-10T16:02:33.216Z,27.18
2018-06-10T16:05:02.551Z,27.78
2018-06-10T16:07:31.867Z,27.32
2018-06-10T16:10:01.171Z,27.43
2018-06-10T16:12:30.481Z,27.31
2018-06-10T16:15:00.048Z,27.26
2018-06-10T16:17:29.362Z,27.17
2018-06-10T16:19:58.691Z,27.22
2018-06-10T16:22:28.000Z,27.01
2018-06-10T16:24:57.295Z,27.00
2018-06-10T16:27:26.599Z,26.90
2018-06-10T16:29:55.899Z,27.03
2018-06-10T16:32:25.203Z,27.09
2018-06-10T16:34:54.687Z,27.10
2018-06-10T16:37:23.995Z,27.26
2018-06-10T16:39:53.313Z,27.30
2018-06-10T16:42:22.604Z,27.19
2018-06-10T16:44:51.912Z,27.10
2018-06-10T16:47:21.236Z,27.01
2018-06-10T16:49:50.287Z,26.98
2018-06-10T16:52:19.600Z,26.76
2018-06-10T16:54:48.904Z,26.63
2018-06-10T16:57:18.196Z,26.71
2018-06-10T16:59:47.492Z,26.68
2018-06-10T17:02:16.788Z,26.51
2018-06-10T17:04:46.172Z,26.62
2018-06-10T17:07:15.476Z,26.66
2018-06-10T17:09:44.780Z,26.66
2018-06-10T17:12:14.084Z,26.60
2018-06-10T17:14:43.407Z,26.53
2018-06-10T17:17:12.719Z,26.65
2018-06-10T17:19:42.571Z,26.38
2018-06-10T17:22:11.890Z,26.64
2018-06-10T17:24:41.211Z,26.65
2018-06-10T17:27:10.523Z,26.62
2018-06-10T17:29:39.858Z,26.54
2018-06-10T17:32:09.151Z,26.52
2018-06-10T17:34:38.506Z,26.45
2018-06-10T17:37:07.761Z,26.36
2018-06-10T17:39:37.080Z,26.10
2018-06-10T17:42:06.407Z,26.11
2018-06-10T17:44:35.721Z,26.21
2018-06-10T17:47:05.055Z,26.13
2018-06-10T17:49:34.103Z,26.18
2018-06-10T17:52:03.418Z,26.23
2018-06-10T17:54:32.724Z,26.14
2018-06-10T17:57:02.028Z,26.04
2018-06-10T17:59:31.333Z,25.99
2018-06-10T18:02:00.625Z,26.14
2018-06-10T18:04:29.947Z,26.01
2018-06-10T18:06:59.003Z,26.03
2018-06-10T18:09:28.305Z,26.05
2018-06-10T18:11:57.599Z,26.03
2018-06-10T18:14:26.911Z,26.07
2018-06-10T18:16:56.230Z,26.01
2018-06-10T18:19:25.323Z,26.44
2018-06-10T18:21:54.666Z,25.83
2018-06-10T18:24:23.980Z,25.70
2018-06-10T18:26:53.301Z,25.50
2018-06-10T18:29:22.622Z,25.30
2018-06-10T18:31:51.986Z,25.01
2018-06-10T18:34:20.989Z,25.27
2018-06-10T18:36:50.296Z,25.06
2018-06-10T18:39:19.599Z,24.94
2018-06-10T18:41:48.892Z,24.80
2018-06-10T18:44:18.193Z,24.79
2018-06-10T18:46:47.509Z,24.63
2018-06-10T18:49:16.836Z,24.53
2018-06-10T18:51:45.907Z,24.53
2018-06-10T18:54:14.989Z,24.36
2018-06-10T18:56:44.312Z,24.22
2018-06-10T18:59:13.370Z,24.12
2018-06-10T19:01:42.697Z,24.09
2018-06-10T19:04:12.000Z,23.31
2018-06-10T19:06:41.090Z,23.77
2018-06-10T19:09:10.475Z,24.25
2018-06-10T19:11:39.803Z,22.70
2018-06-10T19:14:09.107Z,23.12
2018-06-10T19:16:38.176Z,22.90
2018-06-10T19:19:07.496Z,22.83
2018-06-10T19:21:36.560Z,22.63
2018-06-10T19:24:05.872Z,22.44
2018-06-10T19:26:35.196Z,22.28
2018-06-10T19:29:04.268Z,22.15
2018-06-10T19:31:33.589Z,21.98
2018-06-10T19:34:02.876Z,21.89
2018-06-10T19:36:32.196Z,21.81
2018-06-10T19:39:01.241Z,21.67
2018-06-10T19:41:30.541Z,21.54
2018-06-10T19:43:59.845Z,21.59
2018-06-10T19:46:29.181Z,21.51
2018-06-10T19:48:58.234Z,21.34
2018-06-10T19:51:27.549Z,21.53
2018-06-10T19:53:56.852Z,21.74
2018-06-10T19:56:26.160Z,21.75
2018-06-10T19:58:55.451Z,21.34
2018-06-10T20:01:24.768Z,21.49
2018-06-10T20:03:54.080Z,22.09
2018-06-10T20:06:23.162Z,21.99
2018-06-10T20:08:52.461Z,21.22
2018-06-10T20:11:21.791Z,20.93
2018-06-10T20:13:51.116Z,20.79
2018-06-10T20:16:20.404Z,20.72
2018-06-10T20:18:49.704Z,20.62
2018-06-10T20:21:19.006Z,20.38
2018-06-10T20:23:48.316Z,20.23
2018-06-10T20:26:17.599Z,20.11
2018-06-10T20:28:46.905Z,20.13
2018-06-10T20:31:16.203Z,20.15
2018-06-10T20:33:45.498Z,20.13
2018-06-10T20:36:14.796Z,20.04
2018-06-10T20:38:44.123Z,19.96
2018-06-10T20:41:13.424Z,19.89
2018-06-10T20:43:42.732Z,19.84
2018-06-10T20:46:12.033Z,19.80
2018-06-10T20:48:41.448Z,19.72
2018-06-10T20:51:10.679Z,19.73
2018-06-10T20:53:39.740Z,19.66
2018-06-10T20:56:09.046Z,19.60
2018-06-10T20:58:38.413Z,19.62
2018-06-10T21:01:07.678Z,19.61
2018-06-10T21:03:37.001Z,19.52
2018-06-10T21:06:06.325Z,19.48
2018-06-10T21:08:35.640Z,19.41
2018-06-10T21:11:04.940Z,19.37
2018-06-10T21:13:34.267Z,19.21
2018-06-10T21:16:03.348Z,19.29
2018-06-10T21:18:32.647Z,19.03
2018-06-10T21:21:01.940Z,18.81
2018-06-10T21:23:31.248Z,19.07
2018-06-10T21:26:00.544Z,19.03
2018-06-10T21:28:29.839Z,19.04
2018-06-10T21:30:59.132Z,19.03
2018-06-10T21:33:28.459Z,19.06
2018-06-10T21:35:57.739Z,19.05
2018-06-10T21:38:27.055Z,18.80
2018-06-10T21:40:56.357Z,18.91
2018-06-10T21:43:25.416Z,18.20
2018-06-10T21:45:54.719Z,18.82
2018-06-10T21:48:24.024Z,18.86
2018-06-10T21:50:53.329Z,18.88
2018-06-10T21:53:22.626Z,18.92
2018-06-10T21:55:51.928Z,18.89
2018-06-10T21:58:21.239Z,18.93
2018-06-10T22:00:50.527Z,19.01
2018-06-10T22:03:19.824Z,18.39
2018-06-10T22:05:49.132Z,18.94
2018-06-10T22:08:18.436Z,18.94
2018-06-10T22:10:47.733Z,18.88
2018-06-10T22:13:17.040Z,18.74
2018-06-10T22:15:46.369Z,18.76
2018-06-10T22:18:15.661Z,18.89
2018-06-10T22:20:44.731Z,18.86
2018-06-10T22:23:14.029Z,18.78
2018-06-10T22:25:43.340Z,18.65
2018-06-10T22:28:12.701Z,18.90
2018-06-10T22:30:42.090Z,18.95
2018-06-10T22:33:11.087Z,18.94
2018-06-10T22:35:40.412Z,19.03
2018-06-10T22:38:09.700Z,19.19
2018-06-10T22:40:39.042Z,19.24
2018-06-10T22:43:08.333Z,19.43
2018-06-10T22:45:37.636Z,20.17
2018-06-10T22:48:06.695Z,19.48
2018-06-10T22:50:35.995Z,19.43
2018-06-10T22:55:14.660Z,19.26
2018-06-10T22:57:43.956Z,19.20
2018-06-10T23:00:13.253Z,20.39
2018-06-10T23:02:42.560Z,19.11
2018-06-10T23:05:11.621Z,19.02
2018-06-10T23:07:40.942Z,18.78
2018-06-10T23:10:10.223Z,18.61
2018-06-10T23:12:39.544Z,18.64
2018-06-10T23:15:08.816Z,18.54
2018-06-10T23:17:38.125Z,18.48
2018-06-10T23:20:08.531Z,18.34
2018-06-10T23:22:37.832Z,18.29
2018-06-10T23:25:07.114Z,18.19
2018-06-10T23:27:36.417Z,18.11
2018-06-10T23:30:06.054Z,18.04
2018-06-10T23:32:35.348Z,17.98
2018-06-10T23:35:04.644Z,17.99
2018-06-10T23:37:33.941Z,18.03
2018-06-10T23:40:03.224Z,17.97
2018-06-10T23:42:32.512Z,17.97
2018-06-10T23:45:01.814Z,17.89
2018-06-10T23:47:31.111Z,17.86
2018-06-10T23:50:00.406Z,17.80
2018-06-10T23:52:29.700Z,17.85
2018-06-10T23:54:59.000Z,17.85
2018-06-10T23:57:28.054Z,17.80
2018-06-10T23:59:57.335Z,17.80
